createdAt,value
2019-01-21T00:00:36.209Z,26.3
2019-01-21T00:01:47.000Z,24.6
2019-01-21T00:02:59.000Z,26.6
2019-01-21T00:04:12.779Z,24.9
2019-01-21T00:05:23.000Z,25.3
2019-01-21T00:06:37.158Z,22.5
2019-01-21T00:07:49.358Z,23
2019-01-21T00:09:00.000Z,26.9
2019-01-21T00:10:12.000Z,25.6
2019-01-21T00:11:25.949Z,23.3
2019-01-21T00:12:38.140Z,24.5
2019-01-21T00:13:50.341Z,23
2019-01-21T00:15:01.000Z,24.5
2019-01-21T00:16:13.000Z,27.4
2019-01-21T00:17:25.000Z,26.1
2019-01-21T00:18:39.129Z,25.5
2019-01-21T00:19:51.324Z,24.5
2019-01-21T00:21:03.518Z,24.3
2019-01-21T00:22:14.000Z,25.7
2019-01-21T00:23:26.000Z,25.2
2019-01-21T00:24:40.107Z,24.8
2019-01-21T00:25:52.030Z,25.1
2019-01-21T00:27:03.000Z,24.4
2019-01-21T00:28:15.000Z,25.4
2019-01-21T00:29:27.000Z,27.1
2019-01-21T00:30:40.000Z,29.7
2019-01-21T00:31:52.000Z,28.4
2019-01-21T00:33:04.000Z,27.4
2019-01-21T00:34:16.000Z,27.4
2019-01-21T00:36:41.000Z,28.2
2019-01-21T00:37:53.000Z,29.7
2019-01-21T00:39:05.000Z,26.4
2019-01-21T00:40:17.000Z,30.2
2019-01-21T00:41:29.000Z,27.9
2019-01-21T00:42:43.052Z,30.3
2019-01-21T00:43:55.251Z,26.1
2019-01-21T00:45:06.000Z,28.3
2019-01-21T00:46:19.647Z,26.5
2019-01-21T00:47:30.000Z,25.9
2019-01-21T00:48:44.032Z,26.4
2019-01-21T00:49:56.232Z,24.9
2019-01-21T00:51:07.000Z,27.8
2019-01-21T00:52:19.000Z,28.5
2019-01-21T00:53:31.000Z,26.7
2019-01-21T00:54:43.000Z,27.2
2019-01-21T00:55:57.021Z,26.3
2019-01-21T00:58:20.000Z,25
2019-01-21T00:59:32.000Z,26.9
2019-01-21T01:00:45.000Z,27.8
2019-01-21T01:01:58.308Z,26.8
2019-01-21T01:03:09.000Z,27.4
2019-01-21T01:04:22.699Z,24.9
2019-01-21T01:05:33.000Z,26.4
2019-01-21T01:06:46.000Z,29.1
2019-01-21T01:07:58.000Z,29.2
2019-01-21T01:09:11.482Z,30.2
2019-01-21T01:10:22.000Z,29.3
2019-01-21T01:11:34.000Z,29
2019-01-21T01:14:00.268Z,29.5
2019-01-21T01:15:11.000Z,28.8
2019-01-21T01:16:23.000Z,30
2019-01-21T01:17:35.000Z,26.9
2019-01-21T01:18:48.000Z,28.4
2019-01-21T01:20:00.000Z,28.3
2019-01-21T01:21:12.000Z,30.6
2019-01-21T01:22:25.640Z,28.7
2019-01-21T01:23:36.000Z,27
2019-01-21T01:24:49.000Z,28
2019-01-21T01:26:02.242Z,27.7
2019-01-21T01:27:13.000Z,29.5
2019-01-21T01:28:25.000Z,29.7
2019-01-21T01:29:37.000Z,29.6
2019-01-21T01:30:51.020Z,30.9
2019-01-21T01:32:02.000Z,31.9
2019-01-21T01:34:26.000Z,30.4
2019-01-21T01:35:38.000Z,32.1
2019-01-21T01:36:51.009Z,30.2
2019-01-21T01:38:03.000Z,29.5
2019-01-21T01:39:15.000Z,31.2
2019-01-21T01:40:27.000Z,31.4
2019-01-21T01:41:39.000Z,31.3
2019-01-21T01:42:51.000Z,30.8
2019-01-21T01:45:16.000Z,33.7
2019-01-21T01:46:28.000Z,31.1
2019-01-21T01:47:41.076Z,31.3
2019-01-21T01:48:53.962Z,30
2019-01-21T01:50:05.000Z,28.9
2019-01-21T01:51:17.000Z,28.5
2019-01-21T01:52:29.000Z,30.9
2019-01-21T01:53:42.074Z,33.6
2019-01-21T01:54:54.951Z,29.5
2019-01-21T01:56:06.000Z,32.1
2019-01-21T01:57:18.000Z,35.6
2019-01-21T01:58:30.000Z,30.4
2019-01-21T01:59:42.000Z,33.7
2019-01-21T02:00:54.000Z,31.4
2019-01-21T02:02:08.122Z,32.2
2019-01-21T02:03:19.000Z,34.1
2019-01-21T02:04:31.000Z,32.3
2019-01-21T02:05:43.000Z,33.2
2019-01-21T02:06:55.000Z,35.4
2019-01-21T02:08:08.000Z,34.9
2019-01-21T02:09:20.000Z,33.5
2019-01-21T02:10:32.000Z,35
2019-01-21T02:11:44.000Z,34.6
2019-01-21T02:12:57.887Z,34.3
2019-01-21T02:14:09.000Z,32.4
2019-01-21T02:15:21.000Z,31.8
2019-01-21T02:16:34.469Z,33.8
2019-01-21T02:17:46.672Z,35.5
2019-01-21T02:18:57.000Z,32.7
2019-01-21T02:20:10.000Z,33.7
2019-01-21T02:21:22.000Z,30.3
2019-01-21T02:22:34.000Z,34.8
2019-01-21T02:23:46.000Z,31.4
2019-01-21T02:24:59.852Z,32.9
2019-01-21T02:26:11.000Z,33.5
2019-01-21T02:27:23.000Z,32.4
2019-01-21T02:28:35.000Z,30.1
2019-01-21T02:29:48.632Z,30.6
2019-01-21T02:31:00.829Z,31
2019-01-21T02:32:11.000Z,35.9
2019-01-21T02:33:24.000Z,33.6
2019-01-21T02:34:36.000Z,30
2019-01-21T02:35:48.000Z,32.1
2019-01-21T02:39:25.000Z,31
2019-01-21T02:40:37.000Z,32.8
2019-01-21T02:41:49.000Z,30.6
2019-01-21T02:43:01.000Z,33.1
2019-01-21T02:44:13.000Z,34.6
2019-01-21T02:45:26.000Z,31.2
2019-01-21T02:46:38.000Z,31
2019-01-21T02:47:50.000Z,31.2
2019-01-21T02:49:02.000Z,32
2019-01-21T02:50:14.000Z,30.7
2019-01-21T02:51:28.169Z,33.7
2019-01-21T02:52:40.356Z,30.8
2019-01-21T02:53:51.000Z,34.8
2019-01-21T02:55:03.000Z,33.3
2019-01-21T02:56:15.000Z,31.9
2019-01-21T02:57:28.000Z,31.8
2019-01-21T02:58:40.000Z,31.1
2019-01-21T02:59:53.528Z,30.5
2019-01-21T03:01:04.000Z,37.9
2019-01-21T03:02:16.000Z,36.8
2019-01-21T03:03:29.000Z,31.6
2019-01-21T03:04:41.000Z,34.1
2019-01-21T03:05:54.509Z,35.3
2019-01-21T03:07:05.000Z,33.8
2019-01-21T03:08:17.000Z,33.1
2019-01-21T03:09:30.000Z,34.8
2019-01-21T03:10:42.000Z,32.2
2019-01-21T03:11:55.499Z,38.5
2019-01-21T03:13:06.000Z,35.9
2019-01-21T03:15:31.000Z,33.6
2019-01-21T03:16:43.000Z,32.5
2019-01-21T03:17:55.000Z,35.8
2019-01-21T03:19:08.672Z,33.8
2019-01-21T03:20:19.000Z,33.1
2019-01-21T03:21:32.000Z,35.7
2019-01-21T03:22:45.257Z,34.9
2019-01-21T03:23:56.000Z,37.2
2019-01-21T03:25:08.000Z,35.9
2019-01-21T03:26:20.000Z,33.8
2019-01-21T03:27:33.000Z,32.9
2019-01-21T03:28:46.245Z,34.5
2019-01-21T03:29:57.000Z,35.7
2019-01-21T03:31:09.000Z,36.5
2019-01-21T03:32:22.829Z,33.7
2019-01-21T03:33:33.000Z,33.1
2019-01-21T03:34:46.000Z,34.8
2019-01-21T03:35:59.412Z,39.4
2019-01-21T03:37:10.000Z,38.4
2019-01-21T03:38:22.000Z,36.9
2019-01-21T03:39:34.000Z,36.8
2019-01-21T03:40:48.198Z,33
2019-01-21T03:41:59.000Z,33.5
2019-01-21T03:43:12.592Z,36.6
2019-01-21T03:44:23.000Z,33.9
2019-01-21T03:45:35.000Z,33.9
2019-01-21T03:46:48.000Z,35.9
2019-01-21T03:48:00.000Z,39.2
2019-01-21T03:49:12.000Z,34
2019-01-21T03:50:24.000Z,35.6
2019-01-21T03:51:36.000Z,32.1
2019-01-21T03:52:49.000Z,36.4
2019-01-21T03:54:01.000Z,37.3
2019-01-21T03:55:14.549Z,33.5
2019-01-21T03:56:25.000Z,36.9
2019-01-21T03:57:38.949Z,36.4
2019-01-21T03:58:51.142Z,36.5
2019-01-21T04:00:02.000Z,36
2019-01-21T04:01:15.540Z,34.7
2019-01-21T04:02:26.000Z,34.9
2019-01-21T04:03:38.000Z,39
2019-01-21T04:04:52.131Z,38.5
2019-01-21T04:06:03.000Z,34.3
2019-01-21T04:07:16.518Z,32.7
2019-01-21T04:08:27.000Z,35.3
2019-01-21T04:09:40.090Z,34.7
2019-01-21T04:10:53.103Z,35.3
2019-01-21T04:12:05.296Z,32.9
2019-01-21T04:13:16.000Z,38.9
2019-01-21T04:14:28.000Z,36.2
2019-01-21T04:15:40.000Z,33.2
2019-01-21T04:16:53.000Z,34.9
2019-01-21T04:18:06.262Z,33.5
2019-01-21T04:20:29.000Z,31.4
2019-01-21T04:21:41.000Z,30.6
2019-01-21T04:22:55.040Z,31.9
2019-01-21T04:24:06.000Z,32.9
2019-01-21T04:26:30.000Z,29.5
2019-01-21T04:27:42.000Z,29.1
2019-01-21T04:28:54.000Z,30.8
2019-01-21T04:30:07.000Z,29.7
2019-01-21T04:31:19.000Z,31.9
2019-01-21T04:32:31.000Z,28.4
2019-01-21T04:33:44.787Z,29.8
2019-01-21T04:34:55.000Z,32.7
2019-01-21T04:36:08.000Z,32
2019-01-21T04:37:20.000Z,36.1
2019-01-21T04:38:33.562Z,32.9
2019-01-21T04:39:44.000Z,33.7
2019-01-21T04:40:57.954Z,31.4
2019-01-21T04:42:09.000Z,31.1
2019-01-21T04:43:21.000Z,31.1
2019-01-21T04:44:33.000Z,30.8
2019-01-21T04:45:45.000Z,34.2
2019-01-21T04:46:57.000Z,33.3
2019-01-21T04:48:11.123Z,35.1
2019-01-21T04:49:22.000Z,34.4
2019-01-21T04:50:34.000Z,29.4
2019-01-21T04:51:46.000Z,30.7
2019-01-21T04:52:58.000Z,32.7
2019-01-21T04:54:11.000Z,30.7
2019-01-21T04:56:35.000Z,27.6
2019-01-21T04:57:47.000Z,30.2
2019-01-21T04:58:59.000Z,30.1
2019-01-21T05:00:13.068Z,34.6
2019-01-21T05:02:37.452Z,28.3
2019-01-21T05:03:48.000Z,28.7
2019-01-21T05:05:00.000Z,29.4
2019-01-21T05:06:13.000Z,31.2
2019-01-21T05:07:25.000Z,32.2
2019-01-21T05:08:37.000Z,32.2
2019-01-21T05:09:50.632Z,30.8
2019-01-21T05:11:01.000Z,31
2019-01-21T05:12:13.000Z,30.5
2019-01-21T05:13:26.000Z,29.4
2019-01-21T05:14:39.397Z,33.8
2019-01-21T05:15:50.000Z,32.5
2019-01-21T05:18:15.989Z,29.4
2019-01-21T05:19:27.000Z,34.3
2019-01-21T05:20:39.000Z,33.3
2019-01-21T05:21:52.567Z,30.7
2019-01-21T05:23:03.000Z,37.1
2019-01-21T05:24:16.954Z,33.8
2019-01-21T05:25:28.000Z,31.3
2019-01-21T05:26:41.352Z,31.9
2019-01-21T05:27:53.533Z,33
2019-01-21T05:29:04.000Z,29.8
2019-01-21T05:30:16.000Z,33.8
2019-01-21T05:31:30.128Z,32.5
2019-01-21T05:32:41.000Z,32.4
2019-01-21T05:33:53.000Z,30.6
2019-01-21T05:35:05.000Z,33.3
2019-01-21T05:36:17.000Z,31.4
2019-01-21T05:37:30.000Z,33.2
2019-01-21T05:38:43.308Z,32.5
2019-01-21T05:39:54.000Z,37.8
2019-01-21T05:42:18.000Z,31.7
2019-01-21T05:43:31.000Z,34.4
2019-01-21T05:44:43.000Z,37.1
2019-01-21T05:47:08.654Z,33.7
2019-01-21T05:48:19.000Z,34.2
2019-01-21T05:49:32.000Z,30.6
2019-01-21T05:50:44.000Z,33.3
2019-01-21T05:51:56.000Z,34
2019-01-21T05:53:09.618Z,32.9
2019-01-21T05:54:20.000Z,32.6
2019-01-21T05:55:32.000Z,34.3
2019-01-21T05:56:45.000Z,32.1
2019-01-21T05:57:57.000Z,32.6
2019-01-21T05:59:09.000Z,33
2019-01-21T06:00:22.792Z,30.2
2019-01-21T06:01:33.000Z,34.2
2019-01-21T06:02:46.000Z,30.9
2019-01-21T06:03:58.000Z,34.3
2019-01-21T06:05:10.000Z,32.2
2019-01-21T06:06:23.757Z,33.7
2019-01-21T06:07:34.000Z,32.1
2019-01-21T06:08:47.000Z,35.4
2019-01-21T06:10:00.034Z,35.5
2019-01-21T06:11:11.000Z,33.8
2019-01-21T06:12:23.000Z,34.9
2019-01-21T06:13:35.000Z,33.4
2019-01-21T06:14:48.000Z,34.3
2019-01-21T06:16:00.000Z,34.4
2019-01-21T06:17:12.000Z,39.6
2019-01-21T06:18:25.698Z,36.3
2019-01-21T06:19:36.000Z,36.8
2019-01-21T06:20:49.000Z,39.4
2019-01-21T06:22:01.000Z,38.1
2019-01-21T06:23:13.000Z,36.6
2019-01-21T06:24:25.000Z,38
2019-01-21T06:25:37.000Z,38.2
2019-01-21T06:26:50.000Z,32.6
2019-01-21T06:28:02.000Z,32.6
2019-01-21T06:29:14.000Z,38.3
2019-01-21T06:30:26.000Z,32
2019-01-21T06:31:38.000Z,36.6
2019-01-21T06:32:51.000Z,36.6
2019-01-21T06:34:03.000Z,34.5
2019-01-21T06:35:15.000Z,34.9
2019-01-21T06:36:27.000Z,34.6
2019-01-21T06:37:39.000Z,35.8
2019-01-21T06:38:53.010Z,34.3
2019-01-21T06:40:04.000Z,31.8
2019-01-21T06:41:16.000Z,30.9
2019-01-21T06:42:29.591Z,32.6
2019-01-21T06:43:40.000Z,36.1
2019-01-21T06:44:52.000Z,39.3
2019-01-21T06:46:05.000Z,35.6
2019-01-21T06:47:17.000Z,33.5
2019-01-21T06:48:29.000Z,34.3
2019-01-21T06:49:41.000Z,35.2
2019-01-21T06:50:53.000Z,36.1
2019-01-21T06:52:06.000Z,37.1
2019-01-21T06:53:18.000Z,33.4
2019-01-21T06:54:30.000Z,37.9
2019-01-21T06:56:54.000Z,37.4
2019-01-21T06:58:07.000Z,35.8
2019-01-21T06:59:19.000Z,38.6
2019-01-21T07:00:31.000Z,39.2
2019-01-21T07:01:43.000Z,37.4
2019-01-21T07:02:55.000Z,37.7
2019-01-21T07:04:08.000Z,37.7
2019-01-21T07:05:20.000Z,36.7
2019-01-21T07:06:32.000Z,36.2
2019-01-21T07:07:44.000Z,39.2
2019-01-21T07:08:56.000Z,36.2
2019-01-21T07:10:09.000Z,37.4
2019-01-21T07:11:21.000Z,34.8
2019-01-21T07:12:33.000Z,37.3
2019-01-21T07:13:45.000Z,37.8
2019-01-21T07:14:57.000Z,40.2
2019-01-21T07:16:10.000Z,37.1
2019-01-21T07:17:22.000Z,38
2019-01-21T07:18:35.427Z,37
2019-01-21T07:19:46.000Z,38.8
2019-01-21T07:20:58.000Z,36.3
2019-01-21T07:22:10.000Z,35.1
2019-01-21T07:23:23.000Z,33.9
2019-01-21T07:24:35.000Z,36.3
2019-01-21T07:25:48.589Z,34.3
2019-01-21T07:26:59.000Z,33
2019-01-21T07:28:11.000Z,36.4
2019-01-21T07:29:25.175Z,31.4
2019-01-21T07:30:37.368Z,35
2019-01-21T07:31:48.000Z,34.3
2019-01-21T07:33:00.000Z,34.5
2019-01-21T07:34:12.000Z,34.9
2019-01-21T07:35:26.151Z,39.1
2019-01-21T07:36:37.000Z,38
2019-01-21T07:37:49.000Z,37
2019-01-21T07:39:01.000Z,38.9
2019-01-21T07:40:13.000Z,38.7
2019-01-21T07:41:26.000Z,37.4
2019-01-21T07:42:39.317Z,37.4
2019-01-21T07:43:50.000Z,34.8
2019-01-21T07:45:02.000Z,38
2019-01-21T07:46:14.000Z,36.9
2019-01-21T07:48:39.000Z,36.9
2019-01-21T07:49:51.000Z,36.6
2019-01-21T07:51:04.678Z,36.5
2019-01-21T07:52:15.000Z,38.5
2019-01-21T07:53:28.000Z,36.4
2019-01-21T07:54:40.000Z,37
2019-01-21T07:55:52.000Z,36.4
2019-01-21T07:57:04.000Z,34.6
2019-01-21T07:58:16.000Z,38.6
2019-01-21T07:59:29.000Z,35
2019-01-21T08:01:53.000Z,31
2019-01-21T08:03:05.000Z,36.5
2019-01-21T08:04:17.000Z,34.8
2019-01-21T08:05:29.000Z,32.4
2019-01-21T08:06:42.000Z,32
2019-01-21T08:07:54.000Z,34
2019-01-21T08:09:06.000Z,32.3
2019-01-21T08:10:18.000Z,33.2
2019-01-21T08:11:57.000Z,34.1
2019-01-21T08:12:46.000Z,35.6
2019-01-21T08:13:55.000Z,33
2019-01-21T08:15:07.000Z,35.5
2019-01-21T08:16:19.000Z,33.3
2019-01-21T08:17:31.000Z,31.7
2019-01-21T08:18:44.000Z,37.1
2019-01-21T08:19:56.000Z,33.5
2019-01-21T08:21:08.000Z,33.5
2019-01-21T08:22:20.000Z,32.9
2019-01-21T08:23:58.000Z,33.6
2019-01-21T08:24:45.000Z,33.2
2019-01-21T08:25:57.000Z,33.9
2019-01-21T08:27:09.000Z,34.3
2019-01-21T08:28:22.703Z,34.5
2019-01-21T08:29:33.000Z,32.6
2019-01-21T08:30:46.000Z,36.4
2019-01-21T08:31:58.000Z,32.4
2019-01-21T08:33:10.000Z,38.1
2019-01-21T08:34:22.000Z,31.2
2019-01-21T08:35:34.000Z,36.3
2019-01-21T08:36:47.000Z,31.2
2019-01-21T08:37:59.000Z,33.1
2019-01-21T08:39:11.000Z,33
2019-01-21T08:40:23.000Z,34
2019-01-21T08:41:35.000Z,31.8
2019-01-21T08:42:48.000Z,33.6
2019-01-21T08:44:03.000Z,33
2019-01-21T08:45:30.000Z,32.6
2019-01-21T08:46:24.000Z,29.4
2019-01-21T08:47:36.000Z,30.6
2019-01-21T08:48:48.000Z,31.5
2019-01-21T08:50:01.000Z,30.1
2019-01-21T08:51:13.000Z,32.6
2019-01-21T08:52:25.000Z,33.4
2019-01-21T08:53:37.000Z,32.7
2019-01-21T08:54:49.000Z,32
2019-01-21T08:56:02.000Z,32.8
2019-01-21T08:57:14.000Z,32.4
2019-01-21T08:58:26.000Z,33.1
2019-01-21T08:59:38.000Z,36.4
2019-01-21T09:00:50.000Z,33
2019-01-21T09:02:03.000Z,35.4
2019-01-21T09:03:16.339Z,38.9
2019-01-21T09:04:27.000Z,33
2019-01-21T09:05:39.000Z,35.8
2019-01-21T09:06:51.000Z,33.5
2019-01-21T09:08:04.000Z,38.4
2019-01-21T09:09:16.000Z,35.1
2019-01-21T09:10:28.000Z,34
2019-01-21T09:11:40.000Z,34
2019-01-21T09:12:53.895Z,33.9
2019-01-21T09:14:05.000Z,34.1
2019-01-21T09:15:17.000Z,33.5
2019-01-21T09:16:29.000Z,35.6
2019-01-21T09:17:42.674Z,33.7
2019-01-21T09:18:53.000Z,33.8
2019-01-21T09:20:06.000Z,34.9
2019-01-21T09:21:18.000Z,36
2019-01-21T09:22:30.000Z,34.3
2019-01-21T09:23:42.000Z,35.7
2019-01-21T09:24:54.000Z,33.3
2019-01-21T09:26:07.000Z,35.4
2019-01-21T09:27:19.000Z,35.5
2019-01-21T09:28:31.000Z,36.9
2019-01-21T09:29:43.000Z,37.5
2019-01-21T09:30:55.000Z,38.6
2019-01-21T09:32:07.000Z,34.4
2019-01-21T09:33:20.000Z,31.2
2019-01-21T09:34:32.000Z,35.9
2019-01-21T09:35:44.000Z,37.3
2019-01-21T09:36:56.000Z,35.1
2019-01-21T09:38:08.000Z,36.8
2019-01-21T09:39:21.000Z,34
2019-01-21T09:40:33.000Z,36.1
2019-01-21T09:41:45.000Z,37.3
2019-01-21T09:42:58.752Z,36.6
2019-01-21T09:44:09.000Z,34.1
2019-01-21T09:45:22.000Z,37.4
2019-01-21T09:46:34.000Z,38.2
2019-01-21T09:47:46.000Z,36.9
2019-01-21T09:48:58.000Z,34.4
2019-01-21T09:50:10.000Z,34.1
2019-01-21T09:51:23.000Z,35.6
2019-01-21T09:52:35.000Z,38.5
2019-01-21T09:53:47.000Z,36.8
2019-01-21T09:54:59.000Z,34.2
2019-01-21T09:56:12.895Z,36
2019-01-21T09:57:25.085Z,34.2
2019-01-21T09:58:36.000Z,32.6
2019-01-21T09:59:48.000Z,30.5
2019-01-21T10:01:00.000Z,33.1
2019-01-21T10:02:12.000Z,34.6
2019-01-21T10:03:25.000Z,31.1
2019-01-21T10:04:37.000Z,33
2019-01-21T10:05:49.000Z,35.1
2019-01-21T10:07:01.000Z,31.4
2019-01-21T10:08:13.000Z,33.2
2019-01-21T10:09:25.000Z,34.7
2019-01-21T10:10:38.000Z,33
2019-01-21T10:11:50.000Z,37.9
2019-01-21T10:13:02.000Z,34.1
2019-01-21T10:14:14.000Z,37.6
2019-01-21T10:15:26.000Z,35.8
2019-01-21T10:16:39.000Z,36.7
2019-01-21T10:17:51.000Z,34
2019-01-21T10:19:03.000Z,30.4
2019-01-21T10:21:27.000Z,32.1
2019-01-21T10:22:40.000Z,35.5
2019-01-21T10:23:52.000Z,32.3
2019-01-21T10:25:04.000Z,34.2
2019-01-21T10:26:16.000Z,34.4
2019-01-21T10:27:28.000Z,35.9
2019-01-21T10:28:41.000Z,35.9
2019-01-21T10:29:53.000Z,36.9
2019-01-21T10:31:05.000Z,34.2
2019-01-21T10:32:17.000Z,35.9
2019-01-21T10:33:29.000Z,38.3
2019-01-21T10:34:42.000Z,35.3
2019-01-21T10:35:54.000Z,40.5
2019-01-21T10:37:06.000Z,36.4
2019-01-21T10:38:19.681Z,36.4
2019-01-21T10:39:30.000Z,37.2
2019-01-21T10:40:43.000Z,34
2019-01-21T10:43:07.000Z,35.2
2019-01-21T10:44:19.000Z,38.4
2019-01-21T10:45:32.848Z,38
2019-01-21T10:46:44.000Z,37.5
2019-01-21T10:48:00.000Z,39.7
2019-01-21T10:49:08.000Z,38.2
2019-01-21T10:50:21.627Z,39.1
2019-01-21T10:51:32.000Z,40.3
2019-01-21T10:52:44.000Z,40.8
2019-01-21T10:53:57.000Z,40.9
2019-01-21T10:55:10.041Z,41
2019-01-21T10:56:21.000Z,44.4
2019-01-21T10:57:34.790Z,41.9
2019-01-21T10:58:45.000Z,37.5
2019-01-21T10:59:58.000Z,38.3
2019-01-21T11:01:10.000Z,42.2
2019-01-21T11:02:23.563Z,39.4
2019-01-21T11:04:46.000Z,37.9
2019-01-21T11:05:59.000Z,40
2019-01-21T11:07:12.341Z,41.9
2019-01-21T11:08:23.000Z,44.4
2019-01-21T11:09:36.745Z,41.7
2019-01-21T11:10:47.000Z,39.2
2019-01-21T11:12:00.000Z,41.7
2019-01-21T11:13:12.000Z,42.5
2019-01-21T11:14:25.507Z,38.4
2019-01-21T11:15:36.000Z,40.2
2019-01-21T11:16:48.000Z,42.6
2019-01-21T11:18:01.000Z,39.3
2019-01-21T11:19:13.000Z,40.9
2019-01-21T11:20:25.000Z,39.3
2019-01-21T11:21:38.734Z,42
2019-01-21T11:22:49.000Z,41.2
2019-01-21T11:24:02.000Z,41
2019-01-21T11:25:14.000Z,42.6
2019-01-21T11:26:27.448Z,42.5
2019-01-21T11:27:39.651Z,41.5
2019-01-21T11:28:50.000Z,40.4
2019-01-21T11:30:04.050Z,42.4
2019-01-21T11:31:15.000Z,41
2019-01-21T11:32:27.000Z,43.4
2019-01-21T11:33:39.000Z,40.9
2019-01-21T11:34:51.000Z,42.5
2019-01-21T11:36:03.000Z,38.2
2019-01-21T11:37:16.000Z,38.7
2019-01-21T11:38:28.000Z,39.9
2019-01-21T11:39:40.000Z,36.1
2019-01-21T11:40:52.000Z,37.9
2019-01-21T11:42:04.000Z,39.2
2019-01-21T11:43:18.169Z,37.5
2019-01-21T11:44:29.000Z,36.7
2019-01-21T11:45:42.630Z,39.2
2019-01-21T11:46:53.000Z,39.9
2019-01-21T11:48:05.000Z,38.4
2019-01-21T11:49:18.000Z,36.9
2019-01-21T11:50:30.000Z,38.9
2019-01-21T11:51:42.000Z,39.5
2019-01-21T11:52:54.000Z,40.6
2019-01-21T11:54:06.000Z,37
2019-01-21T11:55:19.000Z,39.5
2019-01-21T11:56:31.000Z,41.2
2019-01-21T11:57:43.000Z,39.9
2019-01-21T11:58:56.689Z,38.7
2019-01-21T12:00:07.000Z,42.6
2019-01-21T12:02:32.000Z,37.9
2019-01-21T12:03:44.000Z,37.3
2019-01-21T12:04:56.000Z,37.9
2019-01-21T12:06:09.854Z,38.5
2019-01-21T12:07:22.058Z,38.8
2019-01-21T12:08:33.000Z,40.1
2019-01-21T12:09:46.444Z,35.6
2019-01-21T12:10:57.000Z,39.4
2019-01-21T12:12:10.832Z,38.6
2019-01-21T12:13:24.000Z,35.7
2019-01-21T12:14:35.218Z,36.4
2019-01-21T12:15:46.000Z,36.1
2019-01-21T12:17:04.000Z,38.4
2019-01-21T12:18:10.000Z,37.4
2019-01-21T12:19:23.992Z,39.1
2019-01-21T12:20:35.000Z,39.3
2019-01-21T12:21:48.414Z,40.4
2019-01-21T12:24:21.000Z,36.1
2019-01-21T12:25:31.000Z,39.1
2019-01-21T12:26:36.000Z,38
2019-01-21T12:27:48.000Z,37.8
2019-01-21T12:29:00.000Z,35.8
2019-01-21T12:30:13.744Z,35.1
2019-01-21T12:31:24.000Z,37.9
2019-01-21T12:32:37.000Z,38.6
2019-01-21T12:33:49.000Z,35.4
2019-01-21T12:35:01.000Z,36.3
2019-01-21T12:36:14.710Z,37.3
2019-01-21T12:37:25.000Z,38.5
2019-01-21T12:38:38.000Z,35.4
2019-01-21T12:39:50.000Z,35
2019-01-21T12:41:03.484Z,35
2019-01-21T12:42:14.000Z,36.8
2019-01-21T12:43:27.872Z,34.4
2019-01-21T12:44:39.000Z,36.2
2019-01-21T12:45:52.270Z,35.3
2019-01-21T12:47:04.452Z,37.2
2019-01-21T12:48:15.000Z,35.4
2019-01-21T12:49:27.000Z,36.2
2019-01-21T12:50:40.000Z,35.2
2019-01-21T12:51:53.235Z,36.8
2019-01-21T12:53:04.000Z,35.5
2019-01-21T12:54:16.000Z,37.4
2019-01-21T12:55:30.085Z,38.2
2019-01-21T12:56:40.000Z,36.6
2019-01-21T12:57:53.000Z,35.6
2019-01-21T12:59:05.000Z,34.5
2019-01-21T13:00:18.596Z,33.5
2019-01-21T13:01:30.780Z,34
2019-01-21T13:02:41.000Z,36.3
2019-01-21T13:03:54.000Z,34.3
2019-01-21T13:05:06.000Z,33.8
2019-01-21T13:06:18.000Z,33.9
2019-01-21T13:07:30.000Z,33.7
2019-01-21T13:08:42.000Z,34.3
2019-01-21T13:09:55.000Z,33.8
2019-01-21T13:11:07.000Z,35.1
2019-01-21T13:12:19.000Z,32.4
2019-01-21T13:13:31.000Z,31.4
2019-01-21T13:14:43.000Z,33.4
2019-01-21T13:15:57.120Z,34.4
2019-01-21T13:17:08.000Z,35.1
2019-01-21T13:18:20.000Z,32.9
2019-01-21T13:19:33.695Z,30.1
2019-01-21T13:20:45.892Z,35.4
2019-01-21T13:21:58.081Z,32.3
2019-01-21T13:23:09.000Z,32.4
2019-01-21T13:24:21.000Z,33.5
2019-01-21T13:25:33.000Z,33.3
2019-01-21T13:26:46.860Z,31.7
2019-01-21T13:27:58.000Z,36.2
2019-01-21T13:29:10.000Z,33
2019-01-21T13:31:34.000Z,32.9
2019-01-21T13:32:51.042Z,35.5
2019-01-21T13:34:00.024Z,35.3
2019-01-21T13:35:11.000Z,34.2
2019-01-21T13:36:23.000Z,32.6
2019-01-21T13:37:35.000Z,33
2019-01-21T13:38:47.000Z,34.4
2019-01-21T13:39:59.000Z,37.3
2019-01-21T13:41:12.000Z,33.7
2019-01-21T13:42:24.000Z,36.1
2019-01-21T13:43:36.000Z,33.9
2019-01-21T13:44:48.000Z,34.6
2019-01-21T13:46:00.000Z,34.8
2019-01-21T13:47:13.000Z,37.6
2019-01-21T13:48:25.000Z,33.9
2019-01-21T13:49:37.000Z,34.7
2019-01-21T13:50:49.000Z,37.9
2019-01-21T13:52:01.000Z,34.8
2019-01-21T13:53:14.000Z,34.2
2019-01-21T13:54:26.000Z,35.6
2019-01-21T13:55:39.521Z,33.7
2019-01-21T13:56:50.000Z,38.3
2019-01-21T13:58:03.921Z,36.9
2019-01-21T13:59:16.121Z,40.2
2019-01-21T14:00:28.031Z,35.2
2019-01-21T14:01:39.000Z,40.4
2019-01-21T14:02:51.000Z,34.9
2019-01-21T14:04:03.000Z,37.7
2019-01-21T14:05:16.000Z,36.5
2019-01-21T14:06:28.000Z,36
2019-01-21T14:07:40.000Z,37
2019-01-21T14:08:53.067Z,36.5
2019-01-21T14:10:04.000Z,35.3
2019-01-21T14:11:17.000Z,38.3
2019-01-21T14:12:30.270Z,37.5
2019-01-21T14:13:41.000Z,40.7
2019-01-21T14:14:53.000Z,34.4
2019-01-21T14:16:06.854Z,37.6
2019-01-21T14:17:18.000Z,35.8
2019-01-21T14:19:42.000Z,37.6
2019-01-21T14:20:54.000Z,36.2
2019-01-21T14:22:06.000Z,37.4
2019-01-21T14:23:20.155Z,33.4
2019-01-21T14:24:36.000Z,34.8
2019-01-21T14:25:44.537Z,37.9
2019-01-21T14:26:55.000Z,37
2019-01-21T14:28:15.000Z,35.6
2019-01-21T14:29:20.000Z,36.7
2019-01-21T14:30:32.000Z,35.4
2019-01-21T14:31:45.517Z,35.5
2019-01-21T14:32:56.000Z,35.1
2019-01-21T14:34:09.916Z,36.9
2019-01-21T14:35:22.106Z,33.2
2019-01-21T14:36:34.298Z,33
2019-01-21T14:37:46.492Z,35.8
2019-01-21T14:38:57.000Z,35.8
2019-01-21T14:40:09.000Z,36.1
2019-01-21T14:41:22.000Z,34.4
2019-01-21T14:42:34.000Z,35.4
2019-01-21T14:43:47.470Z,32.9
2019-01-21T14:44:58.000Z,33
2019-01-21T14:46:11.862Z,32.2
2019-01-21T14:47:23.000Z,34.1
2019-01-21T14:48:36.257Z,32.6
2019-01-21T14:49:47.000Z,34.1
2019-01-21T14:50:59.000Z,33.5
2019-01-21T14:52:11.000Z,34.1
2019-01-21T14:53:24.000Z,30.3
2019-01-21T14:54:36.000Z,32.1
2019-01-21T14:55:49.043Z,32.4
2019-01-21T14:57:00.000Z,32.9
2019-01-21T14:58:12.000Z,32.6
2019-01-21T14:59:24.000Z,33.5
2019-01-21T15:00:37.000Z,36.1
2019-01-21T15:01:49.000Z,32
2019-01-21T15:03:01.000Z,31.7
2019-01-21T15:04:13.000Z,29.9
2019-01-21T15:05:25.000Z,31.3
2019-01-21T15:06:38.000Z,32.2
2019-01-21T15:07:50.000Z,32.7
2019-01-21T15:10:14.000Z,31.8
2019-01-21T15:11:26.000Z,31.9
2019-01-21T15:12:39.000Z,31.2
2019-01-21T15:13:51.000Z,34.2
2019-01-21T15:15:03.000Z,29.4
2019-01-21T15:17:27.000Z,30.8
2019-01-21T15:18:41.160Z,32.2
2019-01-21T15:19:52.000Z,32.5
2019-01-21T15:21:04.000Z,30.9
2019-01-21T15:22:16.000Z,33.3
2019-01-21T15:23:28.000Z,32.6
2019-01-21T15:24:41.000Z,31
2019-01-21T15:25:54.322Z,30.3
2019-01-21T15:27:06.518Z,32.9
2019-01-21T15:28:17.000Z,30.7
2019-01-21T15:29:29.000Z,29.6
2019-01-21T15:30:42.000Z,32.5
2019-01-21T15:31:55.305Z,31.9
2019-01-21T15:33:06.000Z,31.7
2019-01-21T15:34:18.000Z,31.1
2019-01-21T15:35:30.000Z,30.5
2019-01-21T15:36:44.008Z,33.4
2019-01-21T15:37:56.279Z,30.6
2019-01-21T15:39:07.000Z,34
2019-01-21T15:40:19.000Z,34.4
2019-01-21T15:41:31.000Z,32.5
2019-01-21T15:42:45.006Z,29.9
2019-01-21T15:43:56.000Z,35.2
2019-01-21T15:45:08.000Z,33
2019-01-21T15:46:20.000Z,33.7
2019-01-21T15:47:32.000Z,34.2
2019-01-21T15:48:46.043Z,33.5
2019-01-21T15:49:58.236Z,35.5
2019-01-21T15:51:09.000Z,34.3
2019-01-21T15:52:21.000Z,35.3
2019-01-21T15:53:33.000Z,33.2
2019-01-21T15:54:45.000Z,34.4
2019-01-21T15:55:58.000Z,34.1
2019-01-21T15:57:11.418Z,34
2019-01-21T15:58:22.000Z,36.1
2019-01-21T15:59:34.000Z,32.5
2019-01-21T16:00:46.000Z,34.7
2019-01-21T16:01:59.000Z,38.1
2019-01-21T16:03:11.000Z,36.8
2019-01-21T16:04:23.000Z,33.5
2019-01-21T16:05:35.000Z,35.5
2019-01-21T16:08:01.173Z,37.1
2019-01-21T16:09:12.000Z,36.9
2019-01-21T16:10:24.000Z,35.3
2019-01-21T16:11:36.000Z,35.3
2019-01-21T16:12:49.950Z,36.3
2019-01-21T16:14:01.000Z,35.6
2019-01-21T16:15:13.000Z,35.1
2019-01-21T16:16:25.000Z,37
2019-01-21T16:17:37.000Z,37.1
2019-01-21T16:18:49.000Z,36.3
2019-01-21T16:20:02.000Z,36.6
2019-01-21T16:21:14.000Z,38.9
2019-01-21T16:22:26.000Z,36.5
2019-01-21T16:23:38.000Z,38
2019-01-21T16:24:50.000Z,39.7
2019-01-21T16:26:03.000Z,38.8
2019-01-21T16:27:15.000Z,39.1
2019-01-21T16:28:27.000Z,40.5
2019-01-21T16:29:39.000Z,41.4
2019-01-21T16:30:52.907Z,39.8
2019-01-21T16:32:04.000Z,40.2
2019-01-21T16:33:16.000Z,40.3
2019-01-21T16:34:29.481Z,39.5
2019-01-21T16:35:40.000Z,42.4
2019-01-21T16:36:53.086Z,42.5
2019-01-21T16:38:05.000Z,39.5
2019-01-21T16:39:17.000Z,38.2
2019-01-21T16:40:29.000Z,44.1